createdAt,value
2018-11-20T00:01:52.924Z,13.62
2018-11-20T00:04:54.897Z,12.30
2018-11-20T00:07:56.766Z,13.53
2018-11-20T00:11:01.792Z,12.93
2018-11-20T00:14:00.720Z,14.10
2018-11-20T00:16:52.123Z,13.38
2018-11-20T00:19:32.824Z,13.13
2018-11-20T00:22:11.634Z,15.00
2018-11-20T00:24:54.952Z,11.40
2018-11-20T00:27:59.800Z,13.90
2018-11-20T00:31:01.613Z,12.18
2018-11-20T00:33:57.698Z,12.75
2018-11-20T00:36:43.306Z,14.20
2018-11-20T00:39:45.471Z,12.28
2018-11-20T00:42:21.792Z,12.95
2018-11-20T00:45:07.180Z,12.95
2018-11-20T00:47:54.147Z,13.35
2018-11-20T00:50:53.360Z,15.18
2018-11-20T00:53:38.741Z,13.90
2018-11-20T00:56:42.479Z,14.07
2018-11-20T00:59:22.763Z,13.98
2018-11-20T01:01:59.529Z,14.60
2018-11-20T01:04:57.726Z,14.05
2018-11-20T01:07:43.397Z,14.40
2018-11-20T01:10:21.905Z,14.30
2018-11-20T01:13:14.517Z,11.65
2018-11-20T01:16:04.575Z,12.90
2018-11-20T01:18:48.748Z,14.95
2018-11-20T01:21:38.371Z,16.45
2018-11-20T01:24:25.356Z,19.10
2018-11-20T01:27:08.594Z,18.00
2018-11-20T01:30:13.497Z,14.75
2018-11-20T01:33:03.140Z,14.43
2018-11-20T01:35:48.532Z,12.65
2018-11-20T01:38:47.536Z,13.88
2018-11-20T01:41:32.409Z,14.25
2018-11-20T01:44:28.547Z,13.68
2018-11-20T01:47:21.763Z,13.38
2018-11-20T01:50:14.426Z,16.45
2018-11-20T01:52:59.865Z,13.88
2018-11-20T01:55:38.452Z,14.93
2018-11-20T01:58:25.382Z,17.23
2018-11-20T02:01:10.775Z,13.68
2018-11-20T02:03:56.431Z,16.20
2018-11-20T02:06:41.845Z,13.65
2018-11-20T02:09:40.907Z,15.78
2018-11-20T02:12:43.045Z,15.70
2018-11-20T02:15:28.545Z,15.25
2018-11-20T02:18:35.943Z,17.05
2018-11-20T02:21:20.089Z,16.60
2018-11-20T02:24:08.415Z,15.60
2018-11-20T02:27:10.613Z,17.20
2018-11-20T02:29:56.360Z,17.25
2018-11-20T02:32:46.185Z,16.37
2018-11-20T02:35:35.750Z,15.98
2018-11-20T02:38:30.252Z,18.65
2018-11-20T02:41:11.712Z,17.85
2018-11-20T02:43:55.891Z,16.67
2018-11-20T02:46:39.100Z,15.38
2018-11-20T02:49:30.358Z,16.85
2018-11-20T02:52:16.018Z,18.52
2018-11-20T02:55:11.962Z,17.82
2018-11-20T02:57:57.320Z,17.27
2018-11-20T03:00:53.196Z,15.35
2018-11-20T03:03:38.688Z,18.05
2018-11-20T03:06:21.165Z,17.35
2018-11-20T03:08:57.167Z,17.55
2018-11-20T03:11:46.967Z,19.62
2018-11-20T03:14:36.578Z,14.75
2018-11-20T03:17:15.796Z,18.65
2018-11-20T03:19:57.917Z,17.62
2018-11-20T03:22:53.729Z,18.50
2018-11-20T03:25:57.965Z,18.12
2018-11-20T03:28:57.777Z,17.50
2018-11-20T03:31:43.187Z,18.37
2018-11-20T03:34:45.316Z,19.90
2018-11-20T03:37:38.623Z,18.42
2018-11-20T03:40:18.901Z,19.25
2018-11-20T03:43:12.024Z,17.37
2018-11-20T03:45:57.734Z,18.40
2018-11-20T03:48:50.545Z,19.57
2018-11-20T03:51:37.484Z,19.20
2018-11-20T03:54:18.658Z,19.55
2018-11-20T03:57:04.032Z,20.90
2018-11-20T03:59:49.717Z,19.17
2018-11-20T04:02:36.099Z,19.98
2018-11-20T04:05:23.182Z,18.57
2018-11-20T04:08:08.815Z,17.67
2018-11-20T04:15:45.854Z,21.50
2018-11-20T04:18:27.546Z,19.48
2018-11-20T04:21:14.065Z,18.17
2018-11-20T04:23:59.180Z,20.75
2018-11-20T04:26:39.143Z,20.00
2018-11-20T04:29:14.590Z,17.07
2018-11-20T04:32:12.597Z,17.05
2018-11-20T04:34:51.112Z,19.45
2018-11-20T04:37:37.682Z,18.07
2018-11-20T04:40:37.142Z,16.60
2018-11-20T04:43:38.707Z,14.35
2018-11-20T04:46:31.442Z,16.77
2018-11-20T04:49:16.637Z,16.95
2018-11-20T04:52:01.492Z,18.60
2018-11-20T04:55:03.124Z,17.48
2018-11-20T04:57:48.539Z,19.87
2018-11-20T05:00:28.487Z,19.35
2018-11-20T05:03:12.896Z,19.00
2018-11-20T05:05:58.108Z,17.75
2018-11-20T05:08:39.385Z,17.80
2018-11-20T05:11:34.763Z,20.70
2018-11-20T05:14:24.264Z,15.60
2018-11-20T05:17:19.841Z,18.10
2018-11-20T05:20:21.071Z,20.32
2018-11-20T05:23:14.510Z,18.65
2018-11-20T05:26:04.896Z,20.25
2018-11-20T05:28:49.973Z,17.57
2018-11-20T05:31:26.851Z,15.58
2018-11-20T05:34:19.067Z,16.90
2018-11-20T05:37:05.624Z,17.67
2018-11-20T05:39:50.533Z,17.87
2018-11-20T05:42:37.042Z,14.83
2018-11-20T05:45:22.431Z,18.65
2018-11-20T05:48:07.491Z,20.75
2018-11-20T05:51:12.165Z,18.75
2018-11-20T05:53:58.662Z,17.65
2018-11-20T05:56:45.676Z,18.55
2018-11-20T05:59:29.327Z,19.50
2018-11-20T06:02:14.706Z,18.98
2018-11-20T06:05:16.119Z,19.90
2018-11-20T06:07:57.786Z,16.25
2018-11-20T06:10:44.290Z,20.80
2018-11-20T06:13:35.285Z,20.55
2018-11-20T06:16:31.877Z,20.82
2018-11-20T06:19:27.444Z,20.27
2018-11-20T06:22:07.661Z,20.97
2018-11-20T06:24:53.058Z,22.48
2018-11-20T06:27:38.207Z,21.30
2018-11-20T06:30:40.813Z,17.12
2018-11-20T06:33:25.911Z,20.40
2018-11-20T06:36:10.991Z,21.17
2018-11-20T06:38:52.327Z,24.30
2018-11-20T06:41:48.114Z,21.07
2018-11-20T06:44:49.893Z,21.62
2018-11-20T06:47:35.875Z,22.52
2018-11-20T06:50:20.976Z,23.20
2018-11-20T06:53:05.097Z,23.45
2018-11-20T06:55:55.524Z,22.67
2018-11-20T06:58:40.463Z,21.07
2018-11-20T07:01:29.696Z,23.90
2018-11-20T07:04:25.084Z,24.00
2018-11-20T07:07:17.604Z,19.92
2018-11-20T07:10:03.743Z,22.45
2018-11-20T07:12:48.591Z,22.25
2018-11-20T07:15:28.881Z,21.68
2018-11-20T07:18:03.161Z,23.75
2018-11-20T07:20:52.453Z,20.27
2018-11-20T07:23:48.002Z,21.07
2018-11-20T07:26:33.661Z,23.40
2018-11-20T07:29:18.681Z,23.35
2018-11-20T07:32:00.978Z,20.88
2018-11-20T07:34:50.284Z,22.40
2018-11-20T07:37:39.467Z,23.85
2018-11-20T07:40:23.299Z,21.95
2018-11-20T07:43:00.729Z,21.17
2018-11-20T07:45:46.113Z,19.37
2018-11-20T07:48:38.449Z,21.80
2018-11-20T07:51:23.518Z,22.27
2018-11-20T07:54:08.549Z,21.93
2018-11-20T07:56:55.119Z,20.12
2018-11-20T07:59:40.148Z,22.02
2018-11-20T08:02:27.722Z,18.42
2018-11-20T08:05:23.171Z,16.37
2018-11-20T08:08:15.449Z,18.87
2018-11-20T08:11:00.929Z,18.92
2018-11-20T08:13:46.081Z,22.32
2018-11-20T08:16:41.478Z,20.90
2018-11-20T08:19:40.005Z,20.10
2018-11-20T08:22:38.545Z,19.52
2018-11-20T08:25:35.067Z,20.55
2018-11-20T08:28:20.101Z,21.48
2018-11-20T08:31:12.625Z,19.50
2018-11-20T08:33:51.446Z,20.57
2018-11-20T08:36:36.536Z,21.00
2018-11-20T08:39:18.832Z,21.20
2018-11-20T08:41:58.349Z,19.50
2018-11-20T08:44:43.255Z,19.95
2018-11-20T08:47:44.939Z,18.20
2018-11-20T08:50:43.716Z,19.20
2018-11-20T08:53:30.518Z,20.08
2018-11-20T08:56:29.195Z,20.82
2018-11-20T08:59:04.866Z,18.35
2018-11-20T09:01:51.387Z,20.25
2018-11-20T09:04:37.947Z,21.73
2018-11-20T09:07:24.585Z,18.02
2018-11-20T09:10:11.134Z,21.12
2018-11-20T09:12:57.904Z,18.85
2018-11-20T09:15:44.714Z,17.85
2018-11-20T09:18:31.320Z,17.92
2018-11-20T09:21:17.983Z,18.45
2018-11-20T09:24:04.412Z,17.85
2018-11-20T09:26:50.932Z,20.40
2018-11-20T09:29:37.496Z,18.80
2018-11-20T09:32:24.021Z,16.05
2018-11-20T09:34:59.130Z,18.32
2018-11-20T09:37:45.678Z,15.85
2018-11-20T09:40:51.887Z,18.20
2018-11-20T09:43:38.796Z,18.23
2018-11-20T09:46:26.194Z,17.30
2018-11-20T09:49:12.996Z,18.85
2018-11-20T09:51:59.817Z,17.75
2018-11-20T09:54:46.642Z,18.20
2018-11-20T09:57:33.224Z,16.17
2018-11-20T10:00:19.756Z,18.70
2018-11-20T10:03:05.479Z,18.40
2018-11-20T10:05:52.426Z,18.20
2018-11-20T10:11:40.233Z,18.23
2018-11-20T10:14:28.422Z,16.40
2018-11-20T10:17:15.945Z,16.62
2018-11-20T10:20:07.827Z,19.15
2018-11-20T10:25:41.102Z,16.48
2018-11-20T10:28:40.196Z,14.83
2018-11-20T10:31:30.156Z,18.67
2018-11-20T10:34:16.979Z,15.63
2018-11-20T10:39:57.867Z,17.70
2018-11-20T10:42:36.997Z,18.90
2018-11-20T10:45:24.008Z,17.57
2018-11-20T10:48:12.290Z,16.52
2018-11-20T10:50:59.560Z,16.00
2018-11-20T10:53:49.510Z,20.23
2018-11-20T10:56:37.347Z,17.50
2018-11-20T10:59:25.407Z,18.50
2018-11-20T11:02:12.206Z,19.00
2018-11-20T11:04:58.792Z,17.50
2018-11-20T11:07:45.272Z,17.27
2018-11-20T11:10:31.728Z,18.10
2018-11-20T11:13:18.282Z,17.75
2018-11-20T11:16:04.887Z,20.00
2018-11-20T11:18:51.843Z,19.20
2018-11-20T11:21:30.563Z,17.10
2018-11-20T11:24:17.126Z,14.58
2018-11-20T11:27:03.713Z,19.48
2018-11-20T11:29:50.440Z,15.65
2018-11-20T11:32:36.980Z,17.27
2018-11-20T11:35:24.394Z,18.48
2018-11-20T11:38:10.936Z,18.98
2018-11-20T11:40:57.688Z,17.82
2018-11-20T11:43:44.491Z,17.05
2018-11-20T11:46:31.072Z,18.10
2018-11-20T11:49:17.614Z,19.23
2018-11-20T11:52:04.213Z,18.40
2018-11-20T11:54:39.716Z,17.17
2018-11-20T11:57:26.507Z,18.50
2018-11-20T12:00:13.209Z,17.52
2018-11-20T12:05:57.561Z,17.25
2018-11-20T12:08:41.531Z,17.98
2018-11-20T12:11:26.781Z,19.62
2018-11-20T12:14:13.368Z,16.60
2018-11-20T12:17:00.085Z,17.20
2018-11-20T12:19:46.618Z,16.85
2018-11-20T12:22:33.858Z,17.52
2018-11-20T12:25:09.691Z,16.30
2018-11-20T12:27:56.553Z,17.05
2018-11-20T12:30:42.712Z,15.18
2018-11-20T12:33:29.264Z,17.60
2018-11-20T12:36:15.748Z,15.53
2018-11-20T12:39:02.737Z,18.15
2018-11-20T12:41:48.848Z,17.05
2018-11-20T12:44:36.654Z,18.15
2018-11-20T12:47:21.841Z,17.45
2018-11-20T12:50:08.575Z,19.25
2018-11-20T12:52:48.248Z,17.40
2018-11-20T12:55:36.115Z,18.40
2018-11-20T12:58:21.387Z,18.77
2018-11-20T13:01:07.903Z,18.15
2018-11-20T13:03:54.396Z,18.40
2018-11-20T13:06:40.902Z,18.65
2018-11-20T13:09:28.276Z,18.50
2018-11-20T13:12:14.949Z,17.32
2018-11-20T13:15:01.457Z,18.12
2018-11-20T13:17:49.195Z,19.30
2018-11-20T13:20:35.394Z,16.97
2018-11-20T13:23:25.418Z,17.85
2018-11-20T13:26:03.603Z,18.77
2018-11-20T13:28:59.312Z,18.10
2018-11-20T13:31:45.869Z,14.75
2018-11-20T13:34:37.996Z,18.45
2018-11-20T13:37:24.798Z,16.45
2018-11-20T13:40:23.383Z,16.82
2018-11-20T13:43:15.901Z,21.62
2018-11-20T13:46:01.186Z,17.42
2018-11-20T13:48:47.345Z,15.72
2018-11-20T13:51:31.928Z,16.85
2018-11-20T13:54:16.987Z,16.57
2018-11-20T13:57:10.745Z,16.73
2018-11-20T14:00:01.287Z,16.20
2018-11-20T14:02:47.515Z,16.73
2018-11-20T14:05:34.026Z,16.52
2018-11-20T14:08:23.921Z,16.50
2018-11-20T14:11:22.297Z,17.67
2018-11-20T14:14:14.443Z,17.80
2018-11-20T14:17:06.723Z,18.05
2018-11-20T14:20:04.990Z,17.12
2018-11-20T14:22:51.549Z,18.00
2018-11-20T14:25:48.224Z,17.75
2018-11-20T14:28:37.358Z,18.60
2018-11-20T14:31:39.200Z,18.65
2018-11-20T14:34:24.682Z,17.70
2018-11-20T14:37:10.135Z,19.30
2018-11-20T14:40:02.398Z,19.00
2018-11-20T14:42:44.843Z,19.95
2018-11-20T14:45:40.459Z,18.50
2018-11-20T14:48:38.854Z,17.25
2018-11-20T14:51:24.270Z,18.85
2018-11-20T14:54:09.382Z,18.82
2018-11-20T14:56:54.580Z,17.95
2018-11-20T14:59:43.810Z,18.82
2018-11-20T15:02:28.910Z,19.15
2018-11-20T15:05:14.004Z,19.02
2018-11-20T15:08:12.422Z,19.17
2018-11-20T15:11:10.792Z,15.50
2018-11-20T15:13:56.135Z,20.43
2018-11-20T15:16:42.664Z,18.95
2018-11-20T15:19:41.255Z,22.95
2018-11-20T15:22:27.829Z,22.75
2018-11-20T15:25:14.339Z,21.25
2018-11-20T15:27:59.690Z,18.90
2018-11-20T15:30:41.951Z,21.50
2018-11-20T15:33:46.564Z,18.20
2018-11-20T15:36:32.109Z,18.65
2018-11-20T15:39:20.093Z,22.22
2018-11-20T15:42:08.732Z,22.82
2018-11-20T15:44:58.102Z,21.68
2018-11-20T15:47:38.658Z,21.60
2018-11-20T15:50:26.154Z,20.80
2018-11-20T15:53:27.639Z,23.92
2018-11-20T15:56:12.893Z,21.00
2018-11-20T15:58:58.065Z,23.00
2018-11-20T16:01:56.668Z,23.15
2018-11-20T16:04:41.843Z,22.40
2018-11-20T16:07:43.315Z,25.20
2018-11-20T16:10:28.424Z,24.23
2018-11-20T16:13:02.576Z,24.18
2018-11-20T16:15:58.762Z,24.02
2018-11-20T16:18:59.693Z,20.37
2018-11-20T16:21:53.592Z,22.82
2018-11-20T16:24:40.133Z,22.93
2018-11-20T16:27:32.662Z,22.30
2018-11-20T16:30:17.833Z,23.00
2018-11-20T16:33:04.332Z,23.87
2018-11-20T16:35:40.816Z,24.92
2018-11-20T16:38:42.530Z,23.45
2018-11-20T16:41:31.573Z,23.92
2018-11-20T16:44:16.842Z,22.75
2018-11-20T16:47:03.383Z,22.35
2018-11-20T16:49:58.404Z,25.10
2018-11-20T16:53:02.109Z,24.65
2018-11-20T16:55:47.375Z,24.07
2018-11-20T16:58:32.486Z,25.30
2018-11-20T17:01:17.793Z,27.20
2018-11-20T17:04:13.418Z,24.50
2018-11-20T17:06:59.929Z,25.23
2018-11-20T17:09:46.237Z,23.52
2018-11-20T17:12:33.433Z,25.32
2018-11-20T17:15:18.501Z,21.82
2018-11-20T17:18:03.740Z,22.80
2018-11-20T17:21:00.958Z,23.62
2018-11-20T17:23:56.754Z,25.68
2018-11-20T17:26:46.547Z,24.30
2018-11-20T17:29:36.511Z,25.68
2018-11-20T17:32:23.057Z,22.02
2018-11-20T17:35:13.594Z,23.10
2018-11-20T17:38:09.238Z,22.55
2018-11-20T17:41:08.307Z,20.65
2018-11-20T17:43:54.680Z,23.98
2018-11-20T17:46:41.817Z,25.82
2018-11-20T17:49:23.009Z,23.85
2018-11-20T17:52:08.005Z,27.17
2018-11-20T17:55:11.120Z,23.18
2018-11-20T17:57:56.996Z,26.17
2018-11-20T18:00:56.261Z,25.32
2018-11-20T18:03:38.928Z,26.35
2018-11-20T18:06:24.470Z,25.97
2018-11-20T18:09:13.638Z,25.65
2018-11-20T18:12:02.077Z,25.43
2018-11-20T18:14:49.512Z,22.73
2018-11-20T18:17:35.821Z,25.32
2018-11-20T18:20:36.233Z,27.22
2018-11-20T18:23:36.830Z,22.22
2018-11-20T18:26:18.225Z,26.10
2018-11-20T18:29:05.262Z,24.15
2018-11-20T18:31:55.984Z,24.25
2018-11-20T18:34:44.254Z,19.40
2018-11-20T18:37:32.999Z,24.87
2018-11-20T18:40:21.490Z,26.42
2018-11-20T18:43:11.609Z,23.65
2018-11-20T18:46:01.845Z,24.65
2018-11-20T18:48:49.665Z,26.25
2018-11-20T18:51:44.102Z,26.50
2018-11-20T18:54:34.197Z,24.87
2018-11-20T18:57:28.308Z,25.30
2018-11-20T19:00:16.203Z,25.37
2018-11-20T19:03:13.775Z,19.42
2018-11-20T19:06:01.571Z,25.68
2018-11-20T19:08:48.263Z,24.25
2018-11-20T19:11:45.231Z,23.02
2018-11-20T19:14:45.395Z,24.50
2018-11-20T19:17:31.814Z,25.75
2018-11-20T19:20:21.304Z,20.35
2018-11-20T19:26:34.201Z,18.62
2018-11-20T19:32:28.263Z,25.75
2018-11-20T19:35:16.060Z,24.57
2018-11-20T19:38:04.700Z,26.87
2018-11-20T19:40:52.103Z,26.02
2018-11-20T19:43:38.681Z,25.37
2018-11-20T19:46:25.333Z,27.15
2018-11-20T19:49:11.943Z,23.30
2018-11-20T19:55:23.704Z,23.50
2018-11-20T19:58:10.353Z,24.23
2018-11-20T20:00:57.023Z,23.87
2018-11-20T20:03:43.872Z,25.85
2018-11-20T20:06:32.204Z,27.35
2018-11-20T20:09:38.226Z,28.32
2018-11-20T20:12:25.531Z,26.20
2018-11-20T20:15:31.841Z,28.05
2018-11-20T20:18:18.588Z,28.40
2018-11-20T20:21:06.362Z,23.67
2018-11-20T20:24:12.520Z,28.27
2018-11-20T20:26:59.829Z,26.15
2018-11-20T20:29:47.372Z,26.60
2018-11-20T20:32:34.659Z,25.48
2018-11-20T20:38:08.461Z,29.42
2018-11-20T20:40:55.398Z,23.62
2018-11-20T20:43:45.867Z,26.97
2018-11-20T20:46:33.745Z,28.15
2018-11-20T20:49:20.543Z,27.95
2018-11-20T20:52:07.243Z,26.73
2018-11-20T20:54:54.333Z,26.65
2018-11-20T20:57:41.182Z,27.67
2018-11-20T21:00:28.966Z,22.25
2018-11-20T21:03:04.798Z,28.67
2018-11-20T21:05:54.900Z,28.15
2018-11-20T21:08:45.118Z,30.32
2018-11-20T21:11:28.199Z,27.73
2018-11-20T21:14:10.605Z,27.45
2018-11-20T21:19:46.485Z,27.90
2018-11-20T21:22:33.226Z,29.35
2018-11-20T21:25:20.209Z,29.85
2018-11-20T21:28:09.176Z,28.30
2018-11-20T21:30:55.841Z,31.55
2018-11-20T21:33:42.535Z,29.42
2018-11-20T21:36:29.098Z,30.08
2018-11-20T21:39:15.635Z,30.43
2018-11-20T21:42:02.224Z,31.62
2018-11-20T21:44:39.515Z,28.67
2018-11-20T21:47:26.088Z,32.13
2018-11-20T21:50:12.598Z,30.80
2018-11-20T21:52:59.359Z,30.97
2018-11-20T21:55:46.140Z,33.78
2018-11-20T21:58:32.719Z,32.28
2018-11-20T22:01:21.091Z,31.62
2018-11-20T22:04:07.895Z,26.35
2018-11-20T22:07:13.882Z,33.80
2018-11-20T22:13:26.270Z,32.15
2018-11-20T22:16:13.678Z,34.60
2018-11-20T22:19:00.241Z,35.28
2018-11-20T22:21:46.792Z,34.05
2018-11-20T22:24:33.847Z,25.20
2018-11-20T22:27:20.363Z,33.73
2018-11-20T22:30:06.925Z,36.10
2018-11-20T22:32:53.485Z,36.75
2018-11-20T22:35:40.032Z,26.68
2018-11-20T22:38:12.757Z,33.48
2018-11-20T22:40:59.284Z,31.57
2018-11-20T22:43:45.808Z,29.07
2018-11-20T22:46:32.332Z,33.65
2018-11-20T22:49:11.721Z,34.83
2018-11-20T22:51:58.256Z,35.10
2018-11-20T22:54:44.788Z,36.35
2018-11-20T22:57:31.622Z,35.30
2018-11-20T23:00:18.187Z,36.03
2018-11-20T23:03:04.906Z,34.60
2018-11-20T23:05:50.934Z,35.43
2018-11-20T23:08:18.365Z,35.43
2018-11-20T23:10:45.826Z,36.30
2018-11-20T23:13:13.170Z,36.45
2018-11-20T23:15:40.443Z,37.50
2018-11-20T23:18:07.794Z,35.45
2018-11-20T23:20:35.070Z,35.90
2018-11-20T23:23:02.328Z,35.50
2018-11-20T23:25:29.819Z,32.08
2018-11-20T23:27:57.087Z,36.05
2018-11-20T23:30:24.437Z,33.35
2018-11-20T23:32:51.718Z,34.27
2018-11-20T23:35:19.043Z,32.95
2018-11-20T23:37:46.352Z,36.00
2018-11-20T23:40:14.239Z,34.00
2018-11-20T23:42:41.568Z,33.55
2018-11-20T23:45:10.401Z,33.98
2018-11-20T23:47:37.720Z,32.67
2018-11-20T23:50:06.064Z,31.80
2018-11-20T23:52:33.343Z,33.55
2018-11-20T23:55:00.632Z,35.40
2018-11-20T23:57:27.951Z,24.40
2018-11-20T23:59:55.314Z,33.00
